Time;durP1;ratioP1;P1;durP2;ratioP2;P2;SDS_P1;SDS_P2;PMS_P1;PMS_P2;Temp;Humidity;BMP_temperature;BMP_pressure;BME280_temperature;BME280_humidity;BME280_pressure;Samples;Min_cycle;Max_cycle;Signal;HPM_P1;HPM_P2
2023/01/30 00:01:19;;;;;;;;;;;;;;;-3.95;77.24;98670.91;105109;1254;113339;-65
2023/01/30 00:03:46;;;;;;;;;;;;;;;-3.98;77.47;98665.39;105233;1275;100440;-66
2023/01/30 00:06:13;;;;;;;;;;;;;;;-4.02;77.79;98658.38;105174;1254;100560;-66
2023/01/30 00:08:40;;;;;;;;;;;;;;;-4.04;77.81;98652.92;105100;1268;99281;-66
2023/01/30 00:11:09;;;;;;;;;;;;;;;-4.07;77.74;98655.34;105137;1257;99263;-66
2023/01/30 00:13:37;;;;;;;;;;;;;;;-4.12;78.04;98654.95;105149;1266;112611;-66
2023/01/30 00:16:04;;;;;;;;;;;;;;;-4.17;78.28;98652.44;105111;1254;99358;-66
2023/01/30 00:18:32;;;;;;;;;;;;;;;-4.23;78.43;98645.39;105147;1257;109456;-66
2023/01/30 00:21:00;;;;;;;;;;;;;;;-4.29;78.89;98630.10;105097;1261;99358;-66
2023/01/30 00:23:28;;;;;;;;;;;;;;;-4.33;79.14;98621.34;105192;1257;100432;-66
2023/01/30 00:25:56;;;;;;;;;;;;;;;-4.34;79.27;98615.42;105228;1256;113205;-66
2023/01/30 00:28:23;;;;;;;;;;;;;;;-4.34;79.28;98609.59;105229;1256;99827;-66
2023/01/30 00:30:51;;;;;;;;;;;;;;;-4.35;79.45;98605.23;105243;1257;99243;-67
2023/01/30 00:33:19;;;;;;;;;;;;;;;-4.38;79.70;98596.61;105298;1266;99255;-66
2023/01/30 00:35:47;;;;;;;;;;;;;;;-4.40;79.68;98591.48;105312;1269;100531;-67
2023/01/30 00:38:14;;;;;;;;;;;;;;;-4.45;80.09;98588.06;105222;1266;113665;-66
2023/01/30 00:40:42;;;;;;;;;;;;;;;-4.49;80.41;98591.08;105162;1275;99265;-67
2023/01/30 00:48:43;;;;;;;;;;;;;;;-4.46;80.45;98588.46;105282;1258;99153;-64
2023/01/30 00:51:10;;;;;;;;;;;;;;;-4.44;80.79;98584.18;105212;1257;99282;-64
2023/01/30 00:53:37;;;;;;;;;;;;;;;-4.45;80.93;98575.05;105267;1256;99240;-63
2023/01/30 00:56:05;;;;;;;;;;;;;;;-4.46;81.13;98565.52;105260;1266;99278;-63
2023/01/30 00:58:32;;;;;;;;;;;;;;;-4.45;81.48;98566.37;105200;1256;99308;-64
2023/01/30 01:00:59;;;;;;;;;;;;;;;-4.46;82.10;98561.02;105252;1254;99231;-65
2023/01/30 01:03:26;;;;;;;;;;;;;;;-4.43;82.31;98557.36;105304;1254;99237;-65
2023/01/30 01:05:53;;;;;;;;;;;;;;;-4.37;82.25;98551.96;105444;1272;99234;-66
2023/01/30 01:08:21;;;;;;;;;;;;;;;-4.30;82.61;98549.79;105262;1264;99211;-65
2023/01/30 01:10:48;;;;;;;;;;;;;;;-4.23;82.45;98542.39;105297;1257;99267;-64
2023/01/30 01:13:16;;;;;;;;;;;;;;;-4.18;82.47;98532.35;105228;1257;99291;-64
2023/01/30 01:15:43;;;;;;;;;;;;;;;-4.12;82.35;98522.25;105281;1256;100895;-64
2023/01/30 01:18:09;;;;;;;;;;;;;;;-4.10;82.69;98517.90;105320;1257;100548;-64
2023/01/30 01:20:42;;;;;;;;;;;;;;;-4.10;82.60;98512.79;105113;1257;99363;-64
2023/01/30 01:23:17;;;;;;;;;;;;;;;-4.10;82.48;98509.13;105172;1261;99274;-68
2023/01/30 01:25:44;;;;;;;;;;;;;;;-4.11;82.31;98506.95;105257;1257;99323;-66
2023/01/30 01:28:11;;;;;;;;;;;;;;;-4.16;82.56;98501.31;105350;1256;99365;-65
2023/01/30 01:30:38;;;;;;;;;;;;;;;-4.17;83.02;98492.23;105296;1256;100563;-64
2023/01/30 01:33:06;;;;;;;;;;;;;;;-4.17;82.74;98487.58;105283;1256;100590;-65
2023/01/30 01:35:33;;;;;;;;;;;;;;;-4.15;82.43;98484.10;105277;1266;99342;-64
2023/01/30 01:38:00;;;;;;;;;;;;;;;-4.12;82.11;98474.27;105291;1273;99309;-64
2023/01/30 01:43:14;;;;;;;;;;;;;;;-4.09;82.22;98477.41;105270;1266;107516;-64
2023/01/30 01:45:42;;;;;;;;;;;;;;;-4.08;82.20;98472.21;105276;1266;99262;-64
2023/01/30 01:48:13;;;;;;;;;;;;;;;-4.08;82.01;98456.61;105282;1257;99357;-64
2023/01/30 01:50:47;;;;;;;;;;;;;;;-4.09;81.90;98447.11;105314;1256;113256;-63
2023/01/30 01:53:16;;;;;;;;;;;;;;;-4.12;82.09;98443.59;105287;1257;99355;-63
2023/01/30 01:55:46;;;;;;;;;;;;;;;-4.15;82.07;98436.79;105347;1264;107317;-64
2023/01/30 01:58:17;;;;;;;;;;;;;;;-4.19;82.24;98431.30;105289;1254;99245;-63
2023/01/30 02:00:45;;;;;;;;;;;;;;;-4.19;82.43;98419.42;105298;1275;99244;-64
2023/01/30 02:03:16;;;;;;;;;;;;;;;-4.18;82.14;98407.85;105226;1260;112580;-64
2023/01/30 02:05:45;;;;;;;;;;;;;;;-4.16;82.10;98400.56;105305;1256;99345;-64
2023/01/30 02:08:38;;;;;;;;;;;;;;;-4.14;82.09;98397.30;105202;1275;108177;-64
2023/01/30 02:11:05;;;;;;;;;;;;;;;-4.11;82.06;98393.85;105246;1254;99245;-64
2023/01/30 02:13:32;;;;;;;;;;;;;;;-4.09;82.10;98395.75;105306;1254;99321;-64
2023/01/30 02:16:00;;;;;;;;;;;;;;;-4.06;81.92;98396.41;105328;1275;99274;-63
2023/01/30 02:18:29;;;;;;;;;;;;;;;-4.04;81.91;98390.89;105395;1252;99230;-64
2023/01/30 02:21:15;;;;;;;;;;;;;;;-4.04;81.81;98387.54;105278;1258;108565;-64
2023/01/30 02:23:50;;;;;;;;;;;;;;;-4.05;81.96;98386.64;105192;1257;100521;-65
2023/01/30 02:26:42;;;;;;;;;;;;;;;-4.05;81.86;98389.09;105257;1257;100415;-65
2023/01/30 02:29:25;;;;;;;;;;;;;;;-4.08;82.19;98386.61;105264;1257;112780;-65
2023/01/30 02:32:08;;;;;;;;;;;;;;;-4.08;82.08;98379.02;105091;1264;99320;-65
2023/01/30 02:34:41;;;;;;;;;;;;;;;-4.06;82.34;98374.52;105247;1257;108508;-64
2023/01/30 02:37:19;;;;;;;;;;;;;;;-4.03;82.14;98373.73;105107;1257;100519;-64
2023/01/30 02:40:00;;;;;;;;;;;;;;;-4.01;81.97;98367.64;105335;1255;100433;-64
2023/01/30 02:42:33;;;;;;;;;;;;;;;-3.98;81.70;98361.36;104912;1254;113460;-65
2023/01/30 02:45:14;;;;;;;;;;;;;;;-3.98;81.99;98356.25;105279;1257;99352;-67
2023/01/30 02:48:01;;;;;;;;;;;;;;;-3.99;81.97;98356.17;105165;1254;109795;-68
2023/01/30 02:50:29;;;;;;;;;;;;;;;-4.00;81.98;98350.88;105298;1267;99336;-67
2023/01/30 02:52:56;;;;;;;;;;;;;;;-4.01;82.05;98345.68;105541;1251;99249;-65
2023/01/30 02:55:25;;;;;;;;;;;;;;;-4.00;81.84;98334.83;105296;1274;99253;-64
2023/01/30 02:57:52;;;;;;;;;;;;;;;-3.97;81.98;98332.72;105339;1264;99250;-64
2023/01/30 03:00:22;;;;;;;;;;;;;;;-3.94;81.58;98334.42;105298;1264;99262;-65
2023/01/30 03:03:05;;;;;;;;;;;;;;;-3.89;81.60;98334.07;105314;1271;99920;-64
2023/01/30 03:05:45;;;;;;;;;;;;;;;-3.83;81.51;98339.41;105338;1257;99211;-64
2023/01/30 03:08:12;;;;;;;;;;;;;;;-3.79;81.11;98340.19;105318;1264;113517;-70
2023/01/30 03:10:53;;;;;;;;;;;;;;;-3.75;81.20;98344.43;105288;1260;99273;-67
2023/01/30 03:13:33;;;;;;;;;;;;;;;-3.73;81.06;98346.48;105303;1257;108349;-67
2023/01/30 03:16:04;;;;;;;;;;;;;;;-3.73;81.01;98337.47;105318;1257;100491;-67
2023/01/30 03:18:31;;;;;;;;;;;;;;;-3.74;80.57;98323.16;105363;1264;99558;-69
2023/01/30 03:21:02;;;;;;;;;;;;;;;-3.77;80.66;98315.27;105371;1260;99244;-68
2023/01/30 03:23:29;;;;;;;;;;;;;;;-3.77;80.57;98306.01;105333;1265;99253;-67
2023/01/30 03:25:57;;;;;;;;;;;;;;;-3.76;80.63;98304.73;105294;1267;99256;-67
2023/01/30 03:28:25;;;;;;;;;;;;;;;-3.75;80.43;98312.95;105373;1257;99226;-68
2023/01/30 03:30:52;;;;;;;;;;;;;;;-3.75;80.47;98304.45;105319;1251;99250;-68
2023/01/30 03:33:20;;;;;;;;;;;;;;;-3.74;80.35;98299.30;105268;1274;99411;-68
2023/01/30 03:35:47;;;;;;;;;;;;;;;-3.76;80.30;98289.48;105304;1264;99313;-71
2023/01/30 03:38:15;;;;;;;;;;;;;;;-3.78;80.37;98289.05;105371;1264;100538;-67
2023/01/30 03:40:42;;;;;;;;;;;;;;;-3.81;80.48;98287.11;105301;1264;100461;-64
2023/01/30 03:43:09;;;;;;;;;;;;;;;-3.85;80.30;98284.79;105350;1255;99328;-63
2023/01/30 03:45:36;;;;;;;;;;;;;;;-3.87;80.50;98281.90;105331;1257;100537;-64
2023/01/30 03:48:03;;;;;;;;;;;;;;;-3.89;80.49;98279.94;105271;1265;99338;-63
2023/01/30 03:50:30;;;;;;;;;;;;;;;-3.89;80.65;98280.14;105316;1257;99299;-63
2023/01/30 03:52:58;;;;;;;;;;;;;;;-3.86;80.74;98279.08;105280;1266;99296;-63
2023/01/30 03:55:25;;;;;;;;;;;;;;;-3.83;80.70;98270.77;105349;1267;99326;-64
2023/01/30 03:57:55;;;;;;;;;;;;;;;-3.80;80.49;98276.15;105342;1266;99255;-65
2023/01/30 04:00:22;;;;;;;;;;;;;;;-3.76;80.35;98266.00;105310;1264;99341;-63
2023/01/30 04:02:50;;;;;;;;;;;;;;;-3.74;80.22;98263.60;105310;1257;99961;-63
2023/01/30 04:05:17;;;;;;;;;;;;;;;-3.70;80.25;98261.81;105159;1257;99291;-65
2023/01/30 04:07:44;;;;;;;;;;;;;;;-3.69;80.45;98251.17;105204;1257;99242;-64
2023/01/30 04:10:14;;;;;;;;;;;;;;;-3.70;80.15;98239.11;105300;1264;99336;-66
2023/01/30 04:12:41;;;;;;;;;;;;;;;-3.71;79.85;98236.58;105372;1255;99313;-71
2023/01/30 04:15:09;;;;;;;;;;;;;;;-3.72;80.23;98233.42;105402;1257;107734;-70
2023/01/30 04:17:36;;;;;;;;;;;;;;;-3.73;80.01;98231.91;105346;1257;99742;-66
2023/01/30 04:20:03;;;;;;;;;;;;;;;-3.72;80.09;98223.89;105324;1264;99249;-67
2023/01/30 04:22:31;;;;;;;;;;;;;;;-3.70;79.87;98227.73;105334;1257;99316;-69
2023/01/30 04:24:58;;;;;;;;;;;;;;;-3.66;79.72;98222.16;105322;1266;99280;-74
2023/01/30 04:27:24;;;;;;;;;;;;;;;-3.63;79.66;98221.64;105332;1266;99613;-70
2023/01/30 04:29:51;;;;;;;;;;;;;;;-3.59;79.57;98219.45;105366;1257;99242;-69
2023/01/30 04:32:18;;;;;;;;;;;;;;;-3.58;79.36;98213.08;105338;1265;99150;-67
2023/01/30 04:34:46;;;;;;;;;;;;;;;-3.57;79.35;98208.34;105343;1265;100535;-68
2023/01/30 04:37:12;;;;;;;;;;;;;;;-3.57;79.32;98213.55;105407;1257;100660;-69
2023/01/30 04:39:39;;;;;;;;;;;;;;;-3.58;79.41;98211.27;105323;1258;99268;-69
2023/01/30 04:42:06;;;;;;;;;;;;;;;-3.59;79.54;98212.48;105214;1256;185409;-70
2023/01/30 04:44:33;;;;;;;;;;;;;;;-3.60;79.39;98208.96;105314;1265;99249;-69
2023/01/30 04:47:00;;;;;;;;;;;;;;;-3.59;79.57;98211.88;105282;1261;99236;-71
2023/01/30 04:49:27;;;;;;;;;;;;;;;-3.57;79.32;98205.98;105350;1264;99432;-68
2023/01/30 04:51:54;;;;;;;;;;;;;;;-3.53;79.28;98205.92;105303;1257;100465;-69
2023/01/30 04:54:21;;;;;;;;;;;;;;;-3.49;78.95;98193.41;105367;1264;99239;-68
2023/01/30 04:56:48;;;;;;;;;;;;;;;-3.44;78.98;98192.49;105320;1260;100423;-71
2023/01/30 04:59:15;;;;;;;;;;;;;;;-3.41;78.38;98188.51;105362;1265;99306;-68
2023/01/30 05:01:43;;;;;;;;;;;;;;;-3.38;78.33;98183.41;105295;1264;99293;-72
2023/01/30 05:04:10;;;;;;;;;;;;;;;-3.40;78.07;98177.83;105401;1257;99285;-73
2023/01/30 05:06:37;;;;;;;;;;;;;;;-3.39;78.11;98174.77;105363;1260;99245;-64
2023/01/30 05:09:04;;;;;;;;;;;;;;;-3.40;78.12;98170.29;105380;1264;99237;-64
2023/01/30 05:11:32;;;;;;;;;;;;;;;-3.41;77.97;98164.91;105301;1265;99263;-64
2023/01/30 05:13:59;;;;;;;;;;;;;;;-3.43;78.22;98157.71;105381;1264;100589;-66
2023/01/30 05:16:26;;;;;;;;;;;;;;;-3.42;78.06;98166.35;105272;1274;99259;-64
2023/01/30 05:18:53;;;;;;;;;;;;;;;-3.42;77.92;98164.67;105226;1257;99311;-64
2023/01/30 05:21:21;;;;;;;;;;;;;;;-3.40;78.12;98165.63;105295;1264;99237;-64
2023/01/30 05:23:49;;;;;;;;;;;;;;;-3.38;77.78;98167.08;105292;1274;99924;-63
2023/01/30 05:26:16;;;;;;;;;;;;;;;-3.34;77.99;98157.10;105051;1257;100582;-64
2023/01/30 05:28:43;;;;;;;;;;;;;;;-3.29;77.50;98146.09;105335;1258;99306;-65
2023/01/30 05:31:12;;;;;;;;;;;;;;;-3.26;77.21;98134.41;105225;1264;100540;-73
2023/01/30 05:33:39;;;;;;;;;;;;;;;-3.25;76.91;98125.70;105368;1257;99236;-71
2023/01/30 05:36:06;;;;;;;;;;;;;;;-3.24;76.98;98123.65;105333;1257;99310;-72
2023/01/30 05:38:33;;;;;;;;;;;;;;;-3.23;77.15;98117.86;105356;1264;100567;-63
2023/01/30 05:41:04;;;;;;;;;;;;;;;-3.24;76.84;98105.14;105330;1265;100541;-70
2023/01/30 05:43:35;;;;;;;;;;;;;;;-3.24;77.13;98103.38;105097;1269;112029;-72
2023/01/30 05:46:03;;;;;;;;;;;;;;;-3.25;77.03;98118.20;105301;1260;99342;-70
2023/01/30 05:48:31;;;;;;;;;;;;;;;-3.25;77.36;98130.59;105280;1264;108743;-67
2023/01/30 05:50:58;;;;;;;;;;;;;;;-3.26;76.55;98118.17;105241;1269;99261;-65
2023/01/30 05:53:27;;;;;;;;;;;;;;;-3.25;76.66;98098.05;105226;1257;99376;-70
2023/01/30 05:55:57;;;;;;;;;;;;;;;-3.25;76.55;98094.40;105251;1267;113561;-66
2023/01/30 05:58:25;;;;;;;;;;;;;;;-3.23;76.40;98086.08;105264;1265;99317;-73
2023/01/30 06:00:52;;;;;;;;;;;;;;;-3.21;76.20;98079.97;105363;1258;109705;-72
2023/01/30 06:03:20;;;;;;;;;;;;;;;-3.19;76.02;98061.71;105342;1264;99258;-68
2023/01/30 06:05:47;;;;;;;;;;;;;;;-3.18;75.98;98045.27;105305;1266;100567;-69
2023/01/30 06:08:14;;;;;;;;;;;;;;;-3.19;75.99;98048.38;105307;1265;99262;-66
2023/01/30 06:10:44;;;;;;;;;;;;;;;-3.19;75.83;98035.98;105284;1255;99334;-68
2023/01/30 06:13:11;;;;;;;;;;;;;;;-3.20;75.72;98027.17;105244;1264;108513;-64
2023/01/30 06:15:38;;;;;;;;;;;;;;;-3.19;75.87;98035.19;105241;1258;99691;-65
2023/01/30 06:18:05;;;;;;;;;;;;;;;-3.16;75.66;98050.84;105253;1264;99464;-66
2023/01/30 06:20:33;;;;;;;;;;;;;;;-3.11;76.05;98065.09;105237;1261;99269;-67
2023/01/30 06:23:00;;;;;;;;;;;;;;;-3.07;75.60;98060.66;105283;1274;99303;-70
2023/01/30 06:25:27;;;;;;;;;;;;;;;-3.03;75.17;98057.83;105307;1258;100551;-67
2023/01/30 06:27:54;;;;;;;;;;;;;;;-3.02;75.02;98058.71;105304;1263;99348;-68
2023/01/30 06:30:21;;;;;;;;;;;;;;;-3.00;74.82;98062.77;105351;1264;100500;-69
2023/01/30 06:32:51;;;;;;;;;;;;;;;-3.03;74.64;98043.42;105355;1257;99261;-69
2023/01/30 06:35:18;;;;;;;;;;;;;;;-3.02;74.98;98031.52;105324;1256;108117;-63
2023/01/30 06:37:45;;;;;;;;;;;;;;;-3.02;75.17;98024.18;105271;1264;100521;-63
2023/01/30 06:40:12;;;;;;;;;;;;;;;-3.02;75.18;98027.61;105227;1267;99255;-63
2023/01/30 06:42:46;;;;;;;;;;;;;;;-3.02;75.19;98039.89;105142;1266;99324;-63
2023/01/30 06:45:14;;;;;;;;;;;;;;;-3.02;75.09;98040.77;105289;1258;100544;-63
2023/01/30 06:47:52;;;;;;;;;;;;;;;-3.00;75.30;98043.15;105124;1266;108339;-63
2023/01/30 06:50:20;;;;;;;;;;;;;;;-2.96;75.43;98054.00;105250;1268;100440;-66
2023/01/30 06:52:48;;;;;;;;;;;;;;;-2.93;75.38;98048.04;105152;1257;100592;-71
2023/01/30 06:55:16;;;;;;;;;;;;;;;-2.88;75.11;98053.70;105322;1257;112776;-67
2023/01/30 06:57:44;;;;;;;;;;;;;;;-2.86;74.76;98042.98;105288;1256;99388;-71
2023/01/30 07:00:13;;;;;;;;;;;;;;;-2.85;74.91;98043.20;105308;1267;107493;-70
2023/01/30 07:02:40;;;;;;;;;;;;;;;-2.85;75.11;98041.31;105304;1267;99230;-63
2023/01/30 07:05:08;;;;;;;;;;;;;;;-2.85;74.85;98044.04;105293;1257;99265;-70
2023/01/30 07:07:36;;;;;;;;;;;;;;;-2.87;74.83;98042.51;105356;1266;114287;-65
2023/01/30 07:10:04;;;;;;;;;;;;;;;-2.89;75.03;98043.98;105019;1264;99554;-70
2023/01/30 07:12:35;;;;;;;;;;;;;;;-2.90;74.66;98034.52;105283;1254;107689;-66
2023/01/30 07:15:03;;;;;;;;;;;;;;;-2.91;74.42;98018.96;105295;1258;99249;-67
2023/01/30 07:17:30;;;;;;;;;;;;;;;-2.88;74.60;98011.50;105336;1257;99271;-66
2023/01/30 07:19:57;;;;;;;;;;;;;;;-2.84;74.29;97997.25;105229;1267;99339;-64
2023/01/30 07:22:24;;;;;;;;;;;;;;;-2.79;74.22;97993.05;105252;1257;99291;-65
2023/01/30 07:24:51;;;;;;;;;;;;;;;-2.73;74.37;98007.69;105331;1255;99330;-64
2023/01/30 07:27:18;;;;;;;;;;;;;;;-2.68;74.27;98000.36;105307;1264;99260;-65
2023/01/30 07:29:45;;;;;;;;;;;;;;;-2.66;74.00;97987.89;105172;1260;99695;-64
2023/01/30 07:32:13;;;;;;;;;;;;;;;-2.65;73.68;97987.52;105327;1266;99349;-64
2023/01/30 07:34:40;;;;;;;;;;;;;;;-2.64;73.85;97987.75;105295;1264;99315;-63
2023/01/30 07:37:07;;;;;;;;;;;;;;;-2.64;73.93;97985.82;105219;1266;99367;-65
2023/01/30 07:39:35;;;;;;;;;;;;;;;-2.64;74.16;97978.96;105253;1267;99329;-65
2023/01/30 07:42:02;;;;;;;;;;;;;;;-2.63;74.33;97992.77;105260;1267;99336;-66
2023/01/30 07:44:29;;;;;;;;;;;;;;;-2.61;74.17;97992.80;105132;1266;99351;-65
2023/01/30 07:46:56;;;;;;;;;;;;;;;-2.58;74.14;97997.90;105200;1267;99267;-64
2023/01/30 07:49:23;;;;;;;;;;;;;;;-2.55;73.88;97996.91;105227;1256;99364;-67
2023/01/30 07:51:49;;;;;;;;;;;;;;;-2.53;73.97;97989.77;105254;1256;99258;-67
2023/01/30 07:54:16;;;;;;;;;;;;;;;-2.50;73.96;97985.99;105044;1256;99303;-68
2023/01/30 07:56:44;;;;;;;;;;;;;;;-2.50;73.51;97993.98;105074;1259;99258;-67
2023/01/30 07:59:11;;;;;;;;;;;;;;;-2.50;73.64;97994.23;105255;1264;99307;-63
2023/01/30 08:01:38;;;;;;;;;;;;;;;-2.52;73.52;97992.20;105238;1257;99343;-63
2023/01/30 08:04:05;;;;;;;;;;;;;;;-2.52;73.61;97991.92;105318;1257;100079;-63
2023/01/30 08:06:37;;;;;;;;;;;;;;;-2.54;73.70;97996.73;104984;1264;100541;-63
2023/01/30 08:09:05;;;;;;;;;;;;;;;-2.55;73.51;98001.33;105028;1264;99255;-63
2023/01/30 08:11:33;;;;;;;;;;;;;;;-2.51;73.71;97996.86;105258;1264;107718;-68
2023/01/30 08:14:00;;;;;;;;;;;;;;;-2.48;73.32;97996.44;105182;1268;99252;-69
2023/01/30 08:16:27;;;;;;;;;;;;;;;-2.44;73.44;97985.92;105022;1260;100605;-68
2023/01/30 08:18:54;;;;;;;;;;;;;;;-2.36;73.53;97984.05;105281;1258;100635;-66
2023/01/30 08:21:21;;;;;;;;;;;;;;;-2.23;73.21;97972.38;105272;1266;100660;-67
2023/01/30 08:23:48;;;;;;;;;;;;;;;-2.13;72.97;97953.13;105253;1258;100560;-68
2023/01/30 08:26:15;;;;;;;;;;;;;;;-2.05;72.77;97941.96;105295;1257;100535;-65
2023/01/30 08:28:42;;;;;;;;;;;;;;;-1.92;72.63;97932.45;105168;1266;99237;-69
2023/01/30 08:31:10;;;;;;;;;;;;;;;-1.81;72.37;97922.98;105301;1256;99359;-64
2023/01/30 08:33:38;;;;;;;;;;;;;;;-1.73;72.02;97908.23;105310;1258;99341;-67
2023/01/30 08:36:06;;;;;;;;;;;;;;;-1.69;71.73;97903.66;105312;1252;100409;-64
2023/01/30 08:38:33;;;;;;;;;;;;;;;-1.63;71.85;97917.77;105157;1267;99732;-66
2023/01/30 08:41:03;;;;;;;;;;;;;;;-1.53;71.80;97914.94;105278;1257;99339;-68
2023/01/30 08:43:30;;;;;;;;;;;;;;;-1.41;71.40;97922.65;105271;1266;113436;-64
2023/01/30 08:45:57;;;;;;;;;;;;;;;-1.35;71.19;97922.49;105295;1263;99831;-68
2023/01/30 08:48:25;;;;;;;;;;;;;;;-1.32;71.19;97921.82;105173;1267;99339;-67
2023/01/30 08:50:55;;;;;;;;;;;;;;;-1.35;70.75;97929.31;105123;1266;99421;-64
2023/01/30 08:53:23;;;;;;;;;;;;;;;-1.41;70.85;97927.59;105316;1254;99197;-68
2023/01/30 08:55:50;;;;;;;;;;;;;;;-1.39;71.55;97931.59;105274;1266;100448;-65
2023/01/30 08:58:21;;;;;;;;;;;;;;;-1.28;71.50;97935.03;105325;1267;100442;-68
2023/01/30 09:00:49;;;;;;;;;;;;;;;-1.12;70.96;97933.36;105065;1260;107527;-68
2023/01/30 09:03:17;;;;;;;;;;;;;;;-0.93;70.22;97925.88;105302;1254;99311;-68
2023/01/30 09:05:44;;;;;;;;;;;;;;;-0.74;69.40;97925.88;105253;1257;100647;-67
2023/01/30 09:08:11;;;;;;;;;;;;;;;-0.60;69.28;97920.16;105289;1258;99371;-65
2023/01/30 09:10:39;;;;;;;;;;;;;;;-0.48;68.90;97919.98;105154;1257;99345;-65
2023/01/30 09:13:07;;;;;;;;;;;;;;;-0.47;68.89;97930.20;105230;1268;99215;-62
2023/01/30 09:15:34;;;;;;;;;;;;;;;-0.56;68.74;97925.42;105197;1266;99779;-67
2023/01/30 09:18:02;;;;;;;;;;;;;;;-0.65;68.84;97918.61;105105;1258;100770;-66
2023/01/30 09:20:29;;;;;;;;;;;;;;;-0.70;69.13;97914.80;105331;1267;99304;-67
2023/01/30 09:22:56;;;;;;;;;;;;;;;-0.74;68.78;97915.54;105260;1254;100554;-67
2023/01/30 09:25:23;;;;;;;;;;;;;;;-0.80;69.16;97914.80;105264;1252;100666;-63
2023/01/30 09:27:50;;;;;;;;;;;;;;;-0.90;69.37;97909.98;105216;1256;99358;-65
2023/01/30 09:30:17;;;;;;;;;;;;;;;-1.01;68.95;97911.84;105078;1264;99252;-64
2023/01/30 09:32:45;;;;;;;;;;;;;;;-1.10;69.48;97894.92;105211;1258;99249;-65
2023/01/30 09:35:12;;;;;;;;;;;;;;;-1.16;70.23;97887.08;105148;1256;99227;-65
2023/01/30 09:37:46;;;;;;;;;;;;;;;-1.19;70.18;97887.23;105297;1264;99262;-70
2023/01/30 09:40:14;;;;;;;;;;;;;;;-1.20;70.91;97885.46;105302;1264;99196;-68
2023/01/30 09:42:41;;;;;;;;;;;;;;;-1.23;70.58;97882.77;105296;1257;99264;-66
2023/01/30 09:45:35;;;;;;;;;;;;;;;-1.26;70.88;97879.50;105290;1257;99358;-65
2023/01/30 09:48:02;;;;;;;;;;;;;;;-1.24;71.50;97868.17;105270;1256;99600;-65
2023/01/30 09:50:44;;;;;;;;;;;;;;;-1.20;71.57;97862.46;105194;1254;99262;-71
2023/01/30 09:53:14;;;;;;;;;;;;;;;-1.18;71.29;97848.39;105263;1256;99310;-65
2023/01/30 09:55:42;;;;;;;;;;;;;;;-1.21;71.54;97837.19;105329;1254;99204;-65
2023/01/30 09:58:15;;;;;;;;;;;;;;;-1.21;71.76;97841.33;105377;1257;99323;-64
2023/01/30 10:00:42;;;;;;;;;;;;;;;-1.23;72.21;97831.20;105285;1257;99269;-65
2023/01/30 10:03:11;;;;;;;;;;;;;;;-1.28;72.80;97823.84;105239;1265;99258;-68
2023/01/30 10:05:44;;;;;;;;;;;;;;;-1.29;73.56;97822.39;105253;1254;99249;-64
2023/01/30 10:08:20;;;;;;;;;;;;;;;-1.31;74.58;97825.16;105259;1264;99326;-64
2023/01/30 10:10:50;;;;;;;;;;;;;;;-1.32;75.10;97816.29;105267;1256;114520;-65
2023/01/30 10:13:54;;;;;;;;;;;;;;;-1.38;76.37;97814.20;105146;1267;100644;-65
2023/01/30 10:16:26;;;;;;;;;;;;;;;-1.43;76.72;97809.80;105261;1257;106615;-66
2023/01/30 10:19:19;;;;;;;;;;;;;;;-1.50;77.85;97803.94;105175;1257;99336;-68
2023/01/30 10:22:04;;;;;;;;;;;;;;;-1.55;78.53;97803.46;104838;1254;100465;-66
2023/01/30 10:24:34;;;;;;;;;;;;;;;-1.60;78.85;97794.50;105187;1264;113063;-65
2023/01/30 10:27:02;;;;;;;;;;;;;;;-1.65;79.34;97784.35;105261;1260;99249;-65
2023/01/30 10:29:32;;;;;;;;;;;;;;;-1.66;79.71;97774.58;105167;1256;109807;-63
2023/01/30 10:32:14;;;;;;;;;;;;;;;-1.64;79.92;97770.28;105271;1267;99348;-64
2023/01/30 10:35:04;;;;;;;;;;;;;;;-1.66;79.76;97769.79;105212;1257;99319;-66
2023/01/30 10:37:34;;;;;;;;;;;;;;;-1.62;79.31;97759.13;105269;1257;113221;-66
2023/01/30 10:40:06;;;;;;;;;;;;;;;-1.59;78.90;97753.23;105231;1259;100614;-64
2023/01/30 10:42:39;;;;;;;;;;;;;;;-1.56;78.35;97753.79;105065;1254;108123;-65
2023/01/30 10:45:12;;;;;;;;;;;;;;;-1.54;77.87;97748.60;105074;1257;99236;-65
2023/01/30 10:47:44;;;;;;;;;;;;;;;-1.49;77.19;97748.97;105049;1258;99372;-67
2023/01/30 10:50:19;;;;;;;;;;;;;;;-1.43;77.28;97748.69;105137;1257;112553;-63
2023/01/30 10:53:00;;;;;;;;;;;;;;;-1.39;76.80;97738.30;105071;1257;99318;-63
2023/01/30 10:55:45;;;;;;;;;;;;;;;-1.34;76.66;97742.20;105021;1267;108859;-63
2023/01/30 10:58:18;;;;;;;;;;;;;;;-1.28;76.90;97740.30;105118;1266;99252;-63
2023/01/30 11:00:51;;;;;;;;;;;;;;;-1.23;76.36;97733.61;105020;1264;99169;-66
2023/01/30 11:03:26;;;;;;;;;;;;;;;-1.21;76.26;97725.83;105042;1257;113603;-64
2023/01/30 11:06:04;;;;;;;;;;;;;;;-1.21;76.71;97733.41;105029;1257;99343;-65
2023/01/30 11:08:33;;;;;;;;;;;;;;;-1.21;77.20;97732.81;105025;1254;108597;-73
2023/01/30 11:11:20;;;;;;;;;;;;;;;-1.18;77.20;97730.04;105272;1275;99336;-63
2023/01/30 11:13:47;;;;;;;;;;;;;;;-1.12;77.07;97721.95;105220;1257;99221;-63
2023/01/30 11:16:14;;;;;;;;;;;;;;;-1.06;76.52;97710.52;105010;1256;99341;-63
2023/01/30 11:18:57;;;;;;;;;;;;;;;-1.00;76.43;97713.20;105227;1267;99323;-63
2023/01/30 11:21:52;;;;;;;;;;;;;;;-0.94;76.50;97707.69;105037;1254;108579;-63
2023/01/30 11:24:23;;;;;;;;;;;;;;;-0.90;76.50;97711.20;105107;1257;99363;-66
2023/01/30 11:26:52;;;;;;;;;;;;;;;-0.89;76.41;97701.74;105070;1256;99231;-64
2023/01/30 11:29:26;;;;;;;;;;;;;;;-0.87;76.55;97688.30;105097;1257;112327;-65
2023/01/30 11:31:54;;;;;;;;;;;;;;;-0.86;77.16;97683.95;105062;1255;99267;-63
2023/01/30 11:34:22;;;;;;;;;;;;;;;-0.83;77.17;97679.27;105023;1275;109354;-64
2023/01/30 11:36:50;;;;;;;;;;;;;;;-0.81;77.38;97665.73;105024;1264;99350;-63
2023/01/30 11:39:20;;;;;;;;;;;;;;;-0.77;77.31;97663.36;105112;1257;99359;-63
2023/01/30 11:41:54;;;;;;;;;;;;;;;-0.68;77.09;97662.75;105230;1275;112727;-63
2023/01/30 11:44:28;;;;;;;;;;;;;;;-0.60;77.29;97665.30;105173;1257;99273;-67
2023/01/30 11:46:59;;;;;;;;;;;;;;;-0.54;76.86;97662.10;105239;1257;107617;-68
2023/01/30 11:49:30;;;;;;;;;;;;;;;-0.50;76.93;97654.30;105289;1254;99271;-66
2023/01/30 11:52:35;;;;;;;;;;;;;;;-0.46;76.95;97638.69;105278;1263;99157;-64
2023/01/30 11:55:07;;;;;;;;;;;;;;;-0.45;77.01;97635.78;105304;1254;112588;-63
2023/01/30 11:57:42;;;;;;;;;;;;;;;-0.45;77.03;97631.42;105159;1256;99268;-64
2023/01/30 12:00:32;;;;;;;;;;;;;;;-0.42;77.08;97634.13;105106;1257;108127;-68
2023/01/30 12:03:03;;;;;;;;;;;;;;;-0.37;76.62;97628.16;105041;1254;99227;-65
2023/01/30 12:05:33;;;;;;;;;;;;;;;-0.31;76.08;97622.34;105071;1257;99233;-63
2023/01/30 12:08:24;;;;;;;;;;;;;;;-0.27;75.50;97619.77;105037;1264;113504;-65
2023/01/30 12:11:23;;;;;;;;;;;;;;;-0.20;75.22;97621.54;105049;1267;99528;-64
2023/01/30 12:13:50;;;;;;;;;;;;;;;-0.16;74.83;97617.35;105050;1254;108691;-63
2023/01/30 12:16:36;;;;;;;;;;;;;;;-0.13;74.50;97616.54;105322;1257;99243;-63
2023/01/30 12:19:28;;;;;;;;;;;;;;;-0.12;74.48;97608.56;105208;1257;100422;-64
2023/01/30 12:22:14;;;;;;;;;;;;;;;-0.11;74.32;97612.34;104872;1259;113610;-66
2023/01/30 12:24:50;;;;;;;;;;;;;;;-0.09;74.43;97608.73;105032;1254;99254;-63
2023/01/30 12:27:29;;;;;;;;;;;;;;;-0.08;74.11;97605.48;104976;1275;108287;-64
2023/01/30 12:29:59;;;;;;;;;;;;;;;-0.06;74.22;97612.92;104919;1260;99247;-67
2023/01/30 12:32:28;;;;;;;;;;;;;;;-0.02;74.06;97608.84;104962;1256;99260;-65
2023/01/30 12:34:55;;;;;;;;;;;;;;;0.04;74.17;97606.34;105062;1254;112584;-63
2023/01/30 12:37:37;;;;;;;;;;;;;;;0.08;74.21;97605.43;105077;1257;100565;-68
2023/01/30 12:40:07;;;;;;;;;;;;;;;0.10;74.70;97606.46;105075;1257;107411;-63
2023/01/30 12:43:04;;;;;;;;;;;;;;;0.07;75.31;97602.58;105056;1256;99282;-63
2023/01/30 12:45:33;;;;;;;;;;;;;;;0.03;75.82;97600.90;104556;1264;100424;-64
2023/01/30 12:48:00;;;;;;;;;;;;;;;0.01;76.17;97594.17;104536;1266;112547;-68
2023/01/30 12:50:46;;;;;;;;;;;;;;;-0.02;76.64;97589.93;104570;1265;99268;-65
2023/01/30 12:53:16;;;;;;;;;;;;;;;-0.02;76.93;97590.67;104523;1263;108093;-67
2023/01/30 12:55:53;;;;;;;;;;;;;;;-0.02;76.92;97590.04;104575;1265;99706;-63
2023/01/30 12:58:20;;;;;;;;;;;;;;;-0.00;76.77;97589.34;104579;1264;100480;-63